sensor_id;sensor_type;location;lat;lon;timestamp;temperature;humidity
3194;DHT22;1608;50.860;13.466;2023-02-28T00:00:49;-0.30;99.90
3194;DHT22;1608;50.860;13.466;2023-02-28T00:03:16;-0.20;99.90
3194;DHT22;1608;50.860;13.466;2023-02-28T00:05:43;-0.40;99.90
3194;DHT22;1608;50.860;13.466;2023-02-28T00:08:10;-0.40;99.90
3194;DHT22;1608;50.860;13.466;2023-02-28T00:10:37;-0.30;99.90
3194;DHT22;1608;50.860;13.466;2023-02-28T00:13:06;-0.40;99.90
3194;DHT22;1608;50.860;13.466;2023-02-28T00:15:33;-0.30;99.90
3194;DHT22;1608;50.860;13.466;2023-02-28T00:18:01;-0.20;99.90
3194;DHT22;1608;50.860;13.466;2023-02-28T00:20:28;-0.20;99.90
3194;DHT22;1608;50.860;13.466;2023-02-28T00:22:55;-0.10;99.90
3194;DHT22;1608;50.860;13.466;2023-02-28T00:25:24;0.00;99.90
3194;DHT22;1608;50.860;13.466;2023-02-28T00:27:51;0.00;99.90
3194;DHT22;1608;50.860;13.466;2023-02-28T00:30:20;0.10;99.90
3194;DHT22;1608;50.860;13.466;2023-02-28T00:32:47;0.10;99.90
3194;DHT22;1608;50.860;13.466;2023-02-28T00:35:16;0.10;99.90
3194;DHT22;1608;50.860;13.466;2023-02-28T00:37:43;0.10;99.90
3194;DHT22;1608;50.860;13.466;2023-02-28T00:40:11;0.10;99.90
3194;DHT22;1608;50.860;13.466;2023-02-28T00:42:38;0.20;99.90
3194;DHT22;1608;50.860;13.466;2023-02-28T00:45:06;0.10;99.90
3194;DHT22;1608;50.860;13.466;2023-02-28T00:47:34;-0.20;99.90
3194;DHT22;1608;50.860;13.466;2023-02-28T00:50:01;-0.20;99.90
3194;DHT22;1608;50.860;13.466;2023-02-28T00:52:29;-0.20;99.90
3194;DHT22;1608;50.860;13.466;2023-02-28T00:54:56;-0.30;99.90
3194;DHT22;1608;50.860;13.466;2023-02-28T00:57:23;-0.20;99.90
3194;DHT22;1608;50.860;13.466;2023-02-28T00:59:49;-0.10;99.90
3194;DHT22;1608;50.860;13.466;2023-02-28T01:02:16;0.00;99.90
3194;DHT22;1608;50.860;13.466;2023-02-28T01:04:46;0.00;99.90
3194;DHT22;1608;50.860;13.466;2023-02-28T01:07:13;0.10;99.90
3194;DHT22;1608;50.860;13.466;2023-02-28T01:09:41;0.10;99.90
3194;DHT22;1608;50.860;13.466;2023-02-28T01:12:08;0.00;99.90
3194;DHT22;1608;50.860;13.466;2023-02-28T01:14:36;0.00;99.90
3194;DHT22;1608;50.860;13.466;2023-02-28T01:17:03;0.00;99.90
3194;DHT22;1608;50.860;13.466;2023-02-28T01:19:29;-0.10;99.90
3194;DHT22;1608;50.860;13.466;2023-02-28T01:21:56;-0.10;99.90
3194;DHT22;1608;50.860;13.466;2023-02-28T01:24:23;-0.10;99.90
3194;DHT22;1608;50.860;13.466;2023-02-28T01:26:51;-0.10;99.90
3194;DHT22;1608;50.860;13.466;2023-02-28T01:29:18;-0.20;99.90
3194;DHT22;1608;50.860;13.466;2023-02-28T01:31:45;-0.20;99.90
3194;DHT22;1608;50.860;13.466;2023-02-28T01:34:11;-0.10;99.90
3194;DHT22;1608;50.860;13.466;2023-02-28T01:36:38;-0.20;99.90
3194;DHT22;1608;50.860;13.466;2023-02-28T01:39:05;-0.20;99.90
3194;DHT22;1608;50.860;13.466;2023-02-28T01:41:34;-0.20;99.90
3194;DHT22;1608;50.860;13.466;2023-02-28T01:44:05;-0.20;99.90
3194;DHT22;1608;50.860;13.466;2023-02-28T01:46:34;-0.30;99.90
3194;DHT22;1608;50.860;13.466;2023-02-28T01:49:05;-0.30;99.90
3194;DHT22;1608;50.860;13.466;2023-02-28T01:51:37;-0.30;99.90
3194;DHT22;1608;50.860;13.466;2023-02-28T01:54:08;-0.30;99.90
3194;DHT22;1608;50.860;13.466;2023-02-28T01:56:43;-0.40;99.90
3194;DHT22;1608;50.860;13.466;2023-02-28T01:59:12;-0.50;99.90
3194;DHT22;1608;50.860;13.466;2023-02-28T02:01:40;-0.50;99.90
3194;DHT22;1608;50.860;13.466;2023-02-28T02:04:08;-0.40;99.90
3194;DHT22;1608;50.860;13.466;2023-02-28T02:06:38;-0.30;99.90
3194;DHT22;1608;50.860;13.466;2023-02-28T02:09:05;-0.30;99.90
3194;DHT22;1608;50.860;13.466;2023-02-28T02:11:33;-0.20;99.90
3194;DHT22;1608;50.860;13.466;2023-02-28T02:14:19;-0.30;99.90
3194;DHT22;1608;50.860;13.466;2023-02-28T02:16:56;-0.30;99.90
3194;DHT22;1608;50.860;13.466;2023-02-28T02:19:53;-0.30;99.90
3194;DHT22;1608;50.860;13.466;2023-02-28T02:22:46;-0.20;99.90
3194;DHT22;1608;50.860;13.466;2023-02-28T02:25:26;-0.20;99.90
3194;DHT22;1608;50.860;13.466;2023-02-28T02:28:22;-0.10;99.90
3194;DHT22;1608;50.860;13.466;2023-02-28T02:31:18;0.00;99.90
3194;DHT22;1608;50.860;13.466;2023-02-28T02:34:30;0.00;99.90
3194;DHT22;1608;50.860;13.466;2023-02-28T02:37:09;-0.10;99.90
3194;DHT22;1608;50.860;13.466;2023-02-28T02:39:45;-0.20;99.90
3194;DHT22;1608;50.860;13.466;2023-02-28T02:42:19;-0.10;99.90
3194;DHT22;1608;50.860;13.466;2023-02-28T02:44:50;-0.10;99.90
3194;DHT22;1608;50.860;13.466;2023-02-28T02:47:22;0.00;99.90
3194;DHT22;1608;50.860;13.466;2023-02-28T02:49:54;0.00;99.90
3194;DHT22;1608;50.860;13.466;2023-02-28T02:52:24;0.10;99.90
3194;DHT22;1608;50.860;13.466;2023-02-28T02:54:54;0.10;99.90
3194;DHT22;1608;50.860;13.466;2023-02-28T02:57:26;0.10;99.90
3194;DHT22;1608;50.860;13.466;2023-02-28T02:59:56;0.00;99.90
3194;DHT22;1608;50.860;13.466;2023-02-28T03:02:23;0.00;99.90
3194;DHT22;1608;50.860;13.466;2023-02-28T03:04:58;0.00;99.90
3194;DHT22;1608;50.860;13.466;2023-02-28T03:07:26;0.00;99.90
3194;DHT22;1608;50.860;13.466;2023-02-28T03:09:54;0.00;99.90
3194;DHT22;1608;50.860;13.466;2023-02-28T03:12:24;-0.10;99.90
3194;DHT22;1608;50.860;13.466;2023-02-28T03:15:08;0.00;99.90
3194;DHT22;1608;50.860;13.466;2023-02-28T03:17:48;0.00;99.90
3194;DHT22;1608;50.860;13.466;2023-02-28T03:20:27;0.00;99.90
3194;DHT22;1608;50.860;13.466;2023-02-28T03:23:05;0.00;99.90
3194;DHT22;1608;50.860;13.466;2023-02-28T03:25:39;0.00;99.90
3194;DHT22;1608;50.860;13.466;2023-02-28T03:28:15;0.00;99.90
3194;DHT22;1608;50.860;13.466;2023-02-28T03:30:47;-0.10;99.90
3194;DHT22;1608;50.860;13.466;2023-02-28T03:33:21;-0.20;99.90
3194;DHT22;1608;50.860;13.466;2023-02-28T03:35:54;-0.20;99.90
3194;DHT22;1608;50.860;13.466;2023-02-28T03:38:27;-0.30;99.90
3194;DHT22;1608;50.860;13.466;2023-02-28T03:41:00;-0.30;99.90
3194;DHT22;1608;50.860;13.466;2023-02-28T03:43:34;-0.30;99.90
3194;DHT22;1608;50.860;13.466;2023-02-28T03:46:07;-0.40;99.90
3194;DHT22;1608;50.860;13.466;2023-02-28T03:48:40;-0.40;99.90
3194;DHT22;1608;50.860;13.466;2023-02-28T03:51:12;-0.60;99.90
3194;DHT22;1608;50.860;13.466;2023-02-28T03:53:45;-0.60;99.90
3194;DHT22;1608;50.860;13.466;2023-02-28T03:56:16;-0.70;99.90
3194;DHT22;1608;50.860;13.466;2023-02-28T03:58:49;-0.80;99.90
3194;DHT22;1608;50.860;13.466;2023-02-28T04:01:20;-0.90;99.90
3194;DHT22;1608;50.860;13.466;2023-02-28T04:03:49;-1.00;99.90
3194;DHT22;1608;50.860;13.466;2023-02-28T04:06:19;-1.10;99.90
3194;DHT22;1608;50.860;13.466;2023-02-28T04:08:47;-1.30;99.90
3194;DHT22;1608;50.860;13.466;2023-02-28T04:11:21;-1.40;99.90
3194;DHT22;1608;50.860;13.466;2023-02-28T04:13:48;-1.50;99.90
3194;DHT22;1608;50.860;13.466;2023-02-28T04:16:16;-1.50;99.90
3194;DHT22;1608;50.860;13.466;2023-02-28T04:18:43;-1.60;99.90
3194;DHT22;1608;50.860;13.466;2023-02-28T04:21:10;-1.70;99.90
3194;DHT22;1608;50.860;13.466;2023-02-28T04:23:38;-1.70;99.90
3194;DHT22;1608;50.860;13.466;2023-02-28T04:26:05;-1.70;99.90
3194;DHT22;1608;50.860;13.466;2023-02-28T04:28:32;-1.80;99.90
3194;DHT22;1608;50.860;13.466;2023-02-28T04:31:01;-1.90;99.90
3194;DHT22;1608;50.860;13.466;2023-02-28T04:33:29;-1.90;99.90
3194;DHT22;1608;50.860;13.466;2023-02-28T04:36:00;-0.40;99.90
3194;DHT22;1608;50.860;13.466;2023-02-28T04:38:28;-1.90;99.90
3194;DHT22;1608;50.860;13.466;2023-02-28T04:40:58;-1.90;99.90
3194;DHT22;1608;50.860;13.466;2023-02-28T04:43:26;-1.90;99.90
3194;DHT22;1608;50.860;13.466;2023-02-28T04:45:53;-1.90;99.90
3194;DHT22;1608;50.860;13.466;2023-02-28T04:48:22;-1.80;99.90
3194;DHT22;1608;50.860;13.466;2023-02-28T04:50:48;-1.80;99.90
3194;DHT22;1608;50.860;13.466;2023-02-28T04:53:15;-1.70;99.90
3194;DHT22;1608;50.860;13.466;2023-02-28T04:55:42;-1.70;99.90
3194;DHT22;1608;50.860;13.466;2023-02-28T04:58:10;-1.70;99.90
3194;DHT22;1608;50.860;13.466;2023-02-28T05:00:37;-1.60;99.90
3194;DHT22;1608;50.860;13.466;2023-02-28T05:03:04;-1.70;99.90
3194;DHT22;1608;50.860;13.466;2023-02-28T05:05:31;-1.70;99.90
3194;DHT22;1608;50.860;13.466;2023-02-28T05:07:58;-1.80;99.90
3194;DHT22;1608;50.860;13.466;2023-02-28T05:10:25;-1.80;99.90
3194;DHT22;1608;50.860;13.466;2023-02-28T05:12:52;-1.80;99.90
3194;DHT22;1608;50.860;13.466;2023-02-28T05:15:20;-1.80;99.90
3194;DHT22;1608;50.860;13.466;2023-02-28T05:17:47;-1.80;99.90
3194;DHT22;1608;50.860;13.466;2023-02-28T05:20:14;-1.80;99.90
3194;DHT22;1608;50.860;13.466;2023-02-28T05:22:41;-1.80;99.90
3194;DHT22;1608;50.860;13.466;2023-02-28T05:25:10;-1.80;99.90
3194;DHT22;1608;50.860;13.466;2023-02-28T05:27:38;-1.80;99.90
3194;DHT22;1608;50.860;13.466;2023-02-28T05:30:06;-1.90;99.90
3194;DHT22;1608;50.860;13.466;2023-02-28T05:32:37;-2.00;99.90
3194;DHT22;1608;50.860;13.466;2023-02-28T05:35:04;-2.10;99.90
3194;DHT22;1608;50.860;13.466;2023-02-28T05:37:31;-2.30;99.90
3194;DHT22;1608;50.860;13.466;2023-02-28T05:39:58;-0.50;99.90
3194;DHT22;1608;50.860;13.466;2023-02-28T05:42:25;-2.50;99.90
3194;DHT22;1608;50.860;13.466;2023-02-28T05:44:52;-2.60;99.90
3194;DHT22;1608;50.860;13.466;2023-02-28T05:47:18;-0.90;99.90
3194;DHT22;1608;50.860;13.466;2023-02-28T05:49:47;-2.60;99.90
3194;DHT22;1608;50.860;13.466;2023-02-28T05:52:14;-2.60;99.90
3194;DHT22;1608;50.860;13.466;2023-02-28T05:54:41;-2.70;99.90
3194;DHT22;1608;50.860;13.466;2023-02-28T05:57:08;-2.80;99.90
3194;DHT22;1608;50.860;13.466;2023-02-28T05:59:35;-2.80;99.90
3194;DHT22;1608;50.860;13.466;2023-02-28T06:02:05;-2.80;99.90
3194;DHT22;1608;50.860;13.466;2023-02-28T06:04:32;-2.80;99.90
3194;DHT22;1608;50.860;13.466;2023-02-28T06:07:00;-2.80;99.90
3194;DHT22;1608;50.860;13.466;2023-02-28T06:09:27;-2.90;99.90
3194;DHT22;1608;50.860;13.466;2023-02-28T06:11:54;-3.00;99.90
3194;DHT22;1608;50.860;13.466;2023-02-28T06:14:21;-3.00;99.90
3194;DHT22;1608;50.860;13.466;2023-02-28T06:16:48;-3.10;99.90
3194;DHT22;1608;50.860;13.466;2023-02-28T06:19:14;-3.10;99.90
3194;DHT22;1608;50.860;13.466;2023-02-28T06:21:42;-3.00;99.90
3194;DHT22;1608;50.860;13.466;2023-02-28T06:24:10;-2.90;99.90
3194;DHT22;1608;50.860;13.466;2023-02-28T06:26:37;-2.80;99.90
3194;DHT22;1608;50.860;13.466;2023-02-28T06:29:04;-2.60;99.90
3194;DHT22;1608;50.860;13.466;2023-02-28T06:31:31;-2.40;99.90
3194;DHT22;1608;50.860;13.466;2023-02-28T06:33:58;-2.40;99.90
3194;DHT22;1608;50.860;13.466;2023-02-28T06:36:25;-2.30;99.90
3194;DHT22;1608;50.860;13.466;2023-02-28T06:38:51;-2.40;99.90
3194;DHT22;1608;50.860;13.466;2023-02-28T06:41:23;-2.40;99.90
3194;DHT22;1608;50.860;13.466;2023-02-28T06:43:49;-2.30;99.90
3194;DHT22;1608;50.860;13.466;2023-02-28T06:46:16;-2.20;99.90
3194;DHT22;1608;50.860;13.466;2023-02-28T06:48:43;-2.00;99.90
3194;DHT22;1608;50.860;13.466;2023-02-28T06:51:12;-1.90;99.90
3194;DHT22;1608;50.860;13.466;2023-02-28T06:53:39;-1.80;99.90
3194;DHT22;1608;50.860;13.466;2023-02-28T06:56:07;-1.70;99.90
3194;DHT22;1608;50.860;13.466;2023-02-28T06:58:36;-1.60;99.90
3194;DHT22;1608;50.860;13.466;2023-02-28T07:01:03;-1.50;99.90
3194;DHT22;1608;50.860;13.466;2023-02-28T07:03:31;-1.40;99.90
3194;DHT22;1608;50.860;13.466;2023-02-28T07:05:58;-1.20;99.90
3194;DHT22;1608;50.860;13.466;2023-02-28T07:08:25;-1.20;99.90
3194;DHT22;1608;50.860;13.466;2023-02-28T07:10:52;-1.20;99.90
3194;DHT22;1608;50.860;13.466;2023-02-28T07:13:19;-1.10;99.90
3194;DHT22;1608;50.860;13.466;2023-02-28T07:15:54;-1.00;99.90
3194;DHT22;1608;50.860;13.466;2023-02-28T07:18:21;-0.70;99.90
3194;DHT22;1608;50.860;13.466;2023-02-28T07:20:49;-0.10;99.90
3194;DHT22;1608;50.860;13.466;2023-02-28T07:23:16;0.50;99.90
3194;DHT22;1608;50.860;13.466;2023-02-28T07:25:43;1.40;99.90
3194;DHT22;1608;50.860;13.466;2023-02-28T07:28:11;2.40;99.90
3194;DHT22;1608;50.860;13.466;2023-02-28T07:30:38;3.30;99.90
3194;DHT22;1608;50.860;13.466;2023-02-28T07:33:06;4.00;99.90
3194;DHT22;1608;50.860;13.466;2023-02-28T07:35:33;4.70;99.90
3194;DHT22;1608;50.860;13.466;2023-02-28T07:38:01;5.20;99.90
3194;DHT22;1608;50.860;13.466;2023-02-28T07:40:28;5.70;99.90
3194;DHT22;1608;50.860;13.466;2023-02-28T07:42:55;6.00;98.70
3194;DHT22;1608;50.860;13.466;2023-02-28T07:45:22;6.30;96.90
3194;DHT22;1608;50.860;13.466;2023-02-28T07:47:48;6.30;95.50
3194;DHT22;1608;50.860;13.466;2023-02-28T07:50:18;6.40;94.30
3194;DHT22;1608;50.860;13.466;2023-02-28T07:52:45;6.80;94.90
3194;DHT22;1608;50.860;13.466;2023-02-28T07:55:12;7.20;93.30
3194;DHT22;1608;50.860;13.466;2023-02-28T07:57:39;7.50;92.00
3194;DHT22;1608;50.860;13.466;2023-02-28T08:00:08;7.90;91.20
3194;DHT22;1608;50.860;13.466;2023-02-28T08:02:36;8.40;90.40
3194;DHT22;1608;50.860;13.466;2023-02-28T08:05:03;8.80;89.80
3194;DHT22;1608;50.860;13.466;2023-02-28T08:07:31;9.30;87.50
3194;DHT22;1608;50.860;13.466;2023-02-28T08:09:59;9.70;84.40
3194;DHT22;1608;50.860;13.466;2023-02-28T08:12:26;9.90;81.20
3194;DHT22;1608;50.860;13.466;2023-02-28T08:14:53;10.10;77.20
3194;DHT22;1608;50.860;13.466;2023-02-28T08:17:20;10.30;75.50
3194;DHT22;1608;50.860;13.466;2023-02-28T08:19:46;10.50;74.40
3194;DHT22;1608;50.860;13.466;2023-02-28T08:22:13;10.70;72.80
3194;DHT22;1608;50.860;13.466;2023-02-28T08:24:42;10.80;70.40
3194;DHT22;1608;50.860;13.466;2023-02-28T08:27:09;10.90;69.20
3194;DHT22;1608;50.860;13.466;2023-02-28T08:29:37;11.10;67.70
3194;DHT22;1608;50.860;13.466;2023-02-28T08:32:04;11.20;66.40
3194;DHT22;1608;50.860;13.466;2023-02-28T08:34:31;11.20;65.80
3194;DHT22;1608;50.860;13.466;2023-02-28T08:36:58;11.30;65.20
3194;DHT22;1608;50.860;13.466;2023-02-28T08:39:25;11.20;64.60
3194;DHT22;1608;50.860;13.466;2023-02-28T08:41:53;11.20;64.70
3194;DHT22;1608;50.860;13.466;2023-02-28T08:44:20;11.10;64.00
3194;DHT22;1608;50.860;13.466;2023-02-28T08:46:46;10.90;64.10
3194;DHT22;1608;50.860;13.466;2023-02-28T08:49:13;10.70;64.70
3194;DHT22;1608;50.860;13.466;2023-02-28T08:51:40;10.40;65.10
3194;DHT22;1608;50.860;13.466;2023-02-28T08:54:08;10.10;65.30
3194;DHT22;1608;50.860;13.466;2023-02-28T08:56:38;9.90;67.10
3194;DHT22;1608;50.860;13.466;2023-02-28T08:59:08;9.60;67.50
3194;DHT22;1608;50.860;13.466;2023-02-28T09:01:35;9.30;68.20
3194;DHT22;1608;50.860;13.466;2023-02-28T09:04:02;9.10;68.90
3194;DHT22;1608;50.860;13.466;2023-02-28T09:06:29;8.80;69.30
3194;DHT22;1608;50.860;13.466;2023-02-28T09:08:57;8.60;69.90
3194;DHT22;1608;50.860;13.466;2023-02-28T09:11:26;8.30;70.20
3194;DHT22;1608;50.860;13.466;2023-02-28T09:13:53;8.10;71.00
3194;DHT22;1608;50.860;13.466;2023-02-28T09:16:23;7.60;68.20
3194;DHT22;1608;50.860;13.466;2023-02-28T09:18:50;6.60;69.20
3194;DHT22;1608;50.860;13.466;2023-02-28T09:21:18;5.90;71.60
3194;DHT22;1608;50.860;13.466;2023-02-28T09:23:47;5.10;73.10
3194;DHT22;1608;50.860;13.466;2023-02-28T09:26:16;4.70;75.20
3194;DHT22;1608;50.860;13.466;2023-02-28T09:28:43;4.20;76.50
3194;DHT22;1608;50.860;13.466;2023-02-28T09:31:14;3.70;78.40
3194;DHT22;1608;50.860;13.466;2023-02-28T09:33:43;3.30;79.70
3194;DHT22;1608;50.860;13.466;2023-02-28T09:36:10;3.10;80.80
3194;DHT22;1608;50.860;13.466;2023-02-28T09:38:37;2.80;82.10
3194;DHT22;1608;50.860;13.466;2023-02-28T09:41:11;2.40;82.60
3194;DHT22;1608;50.860;13.466;2023-02-28T09:43:41;2.20;84.10
3194;DHT22;1608;50.860;13.466;2023-02-28T09:46:18;2.00;86.00
3194;DHT22;1608;50.860;13.466;2023-02-28T09:48:50;1.80;86.50
3194;DHT22;1608;50.860;13.466;2023-02-28T09:51:29;1.80;87.70
3194;DHT22;1608;50.860;13.466;2023-02-28T09:53:57;1.80;88.10
3194;DHT22;1608;50.860;13.466;2023-02-28T09:56:28;1.70;89.30
3194;DHT22;1608;50.860;13.466;2023-02-28T09:59:00;1.80;89.70
3194;DHT22;1608;50.860;13.466;2023-02-28T10:01:31;1.80;90.50
3194;DHT22;1608;50.860;13.466;2023-02-28T10:04:08;1.70;90.00
3194;DHT22;1608;50.860;13.466;2023-02-28T10:06:43;1.60;90.20
3194;DHT22;1608;50.860;13.466;2023-02-28T10:09:15;1.60;90.40
3194;DHT22;1608;50.860;13.466;2023-02-28T10:11:45;1.60;90.90
3194;DHT22;1608;50.860;13.466;2023-02-28T10:14:15;1.60;90.20
3194;DHT22;1608;50.860;13.466;2023-02-28T10:16:45;1.50;90.30
3194;DHT22;1608;50.860;13.466;2023-02-28T10:19:22;1.60;90.70
3194;DHT22;1608;50.860;13.466;2023-02-28T10:21:56;1.60;90.50
3194;DHT22;1608;50.860;13.466;2023-02-28T10:24:28;1.60;90.20
3194;DHT22;1608;50.860;13.466;2023-02-28T10:27:00;1.60;90.10
3194;DHT22;1608;50.860;13.466;2023-02-28T10:29:28;1.60;90.20
3194;DHT22;1608;50.860;13.466;2023-02-28T10:32:00;1.70;90.50
3194;DHT22;1608;50.860;13.466;2023-02-28T10:34:29;1.70;90.40
3194;DHT22;1608;50.860;13.466;2023-02-28T10:36:56;1.80;90.10
3194;DHT22;1608;50.860;13.466;2023-02-28T10:39:37;1.80;90.10
3194;DHT22;1608;50.860;13.466;2023-02-28T10:42:04;1.80;90.20
3194;DHT22;1608;50.860;13.466;2023-02-28T10:44:32;2.20;90.60
3194;DHT22;1608;50.860;13.466;2023-02-28T10:46:59;2.30;90.10
3194;DHT22;1608;50.860;13.466;2023-02-28T10:49:29;2.30;89.10
3194;DHT22;1608;50.860;13.466;2023-02-28T10:51:57;2.30;90.10
3194;DHT22;1608;50.860;13.466;2023-02-28T10:54:29;2.20;89.40
3194;DHT22;1608;50.860;13.466;2023-02-28T10:57:17;2.20;90.70
3194;DHT22;1608;50.860;13.466;2023-02-28T10:59:45;2.30;90.70
3194;DHT22;1608;50.860;13.466;2023-02-28T11:02:33;2.10;90.60
3194;DHT22;1608;50.860;13.466;2023-02-28T11:05:01;2.00;90.70
3194;DHT22;1608;50.860;13.466;2023-02-28T11:07:28;2.00;90.70
3194;DHT22;1608;50.860;13.466;2023-02-28T11:09:57;1.90;90.70
3194;DHT22;1608;50.860;13.466;2023-02-28T11:12:26;1.80;90.80
3194;DHT22;1608;50.860;13.466;2023-02-28T11:14:57;1.90;91.20
3194;DHT22;1608;50.860;13.466;2023-02-28T11:17:26;1.90;91.30
3194;DHT22;1608;50.860;13.466;2023-02-28T11:19:56;2.00;91.00
3194;DHT22;1608;50.860;13.466;2023-02-28T11:22:28;2.00;91.20
3194;DHT22;1608;50.860;13.466;2023-02-28T11:24:59;1.90;90.70
3194;DHT22;1608;50.860;13.466;2023-02-28T11:27:47;1.90;90.60
3194;DHT22;1608;50.860;13.466;2023-02-28T11:30:26;2.00;91.20
3194;DHT22;1608;50.860;13.466;2023-02-28T11:32:53;2.10;90.60
3194;DHT22;1608;50.860;13.466;2023-02-28T11:35:24;2.00;90.90
3194;DHT22;1608;50.860;13.466;2023-02-28T11:37:53;2.10;91.30
3194;DHT22;1608;50.860;13.466;2023-02-28T11:40:28;2.20;91.70
3194;DHT22;1608;50.860;13.466;2023-02-28T11:43:03;2.50;91.50
3194;DHT22;1608;50.860;13.466;2023-02-28T11:45:44;2.70;91.20
3194;DHT22;1608;50.860;13.466;2023-02-28T11:48:18;2.60;90.40
3194;DHT22;1608;50.860;13.466;2023-02-28T11:50:54;2.50;90.00
3194;DHT22;1608;50.860;13.466;2023-02-28T11:53:37;2.30;90.30
3194;DHT22;1608;50.860;13.466;2023-02-28T11:56:12;2.30;90.80
3194;DHT22;1608;50.860;13.466;2023-02-28T11:58:49;2.30;90.80
3194;DHT22;1608;50.860;13.466;2023-02-28T12:01:31;2.30;91.30
3194;DHT22;1608;50.860;13.466;2023-02-28T12:04:17;2.30;91.50
3194;DHT22;1608;50.860;13.466;2023-02-28T12:06:51;2.30;91.40
3194;DHT22;1608;50.860;13.466;2023-02-28T12:09:34;2.30;91.20
3194;DHT22;1608;50.860;13.466;2023-02-28T12:12:10;2.30;90.70
3194;DHT22;1608;50.860;13.466;2023-02-28T12:14:50;2.30;91.00
3194;DHT22;1608;50.860;13.466;2023-02-28T12:17:32;2.40;90.80
3194;DHT22;1608;50.860;13.466;2023-02-28T12:20:14;2.50;91.30
3194;DHT22;1608;50.860;13.466;2023-02-28T12:22:49;2.50;90.70
3194;DHT22;1608;50.860;13.466;2023-02-28T12:25:50;2.40;90.90
3194;DHT22;1608;50.860;13.466;2023-02-28T12:28:25;2.30;91.20
3194;DHT22;1608;50.860;13.466;2023-02-28T12:30:56;2.30;91.40
3194;DHT22;1608;50.860;13.466;2023-02-28T12:33:27;2.30;90.90
3194;DHT22;1608;50.860;13.466;2023-02-28T12:35:56;2.40;91.70
3194;DHT22;1608;50.860;13.466;2023-02-28T12:38:27;2.60;92.10
3194;DHT22;1608;50.860;13.466;2023-02-28T12:40:59;2.70;91.50
3194;DHT22;1608;50.860;13.466;2023-02-28T12:43:32;2.70;90.70
3194;DHT22;1608;50.860;13.466;2023-02-28T12:46:03;2.60;90.60
3194;DHT22;1608;50.860;13.466;2023-02-28T12:48:37;2.50;90.30
3194;DHT22;1608;50.860;13.466;2023-02-28T12:51:07;2.40;90.90
3194;DHT22;1608;50.860;13.466;2023-02-28T12:53:45;2.50;91.70
3194;DHT22;1608;50.860;13.466;2023-02-28T12:56:22;2.60;92.20
3194;DHT22;1608;50.860;13.466;2023-02-28T12:58:56;2.80;92.10
3194;DHT22;1608;50.860;13.466;2023-02-28T13:01:51;2.70;91.20
3194;DHT22;1608;50.860;13.466;2023-02-28T13:04:47;2.50;91.10
3194;DHT22;1608;50.860;13.466;2023-02-28T13:07:50;2.60;91.80
3194;DHT22;1608;50.860;13.466;2023-02-28T13:10:23;2.60;91.90
3194;DHT22;1608;50.860;13.466;2023-02-28T13:12:53;2.80;92.00
3194;DHT22;1608;50.860;13.466;2023-02-28T13:15:24;2.80;91.80
3194;DHT22;1608;50.860;13.466;2023-02-28T13:17:55;2.80;91.60
3194;DHT22;1608;50.860;13.466;2023-02-28T13:20:24;2.70;91.40
3194;DHT22;1608;50.860;13.466;2023-02-28T13:22:53;2.70;91.60
3194;DHT22;1608;50.860;13.466;2023-02-28T13:25:50;2.80;91.60
3194;DHT22;1608;50.860;13.466;2023-02-28T13:28:58;2.90;91.60
3194;DHT22;1608;50.860;13.466;2023-02-28T13:31:26;2.80;90.90
3194;DHT22;1608;50.860;13.466;2023-02-28T13:34:13;2.80;91.20
3194;DHT22;1608;50.860;13.466;2023-02-28T13:36:40;2.90;91.70
3194;DHT22;1608;50.860;13.466;2023-02-28T13:42:34;2.90;91.20
3194;DHT22;1608;50.860;13.466;2023-02-28T13:45:26;2.90;91.00
3194;DHT22;1608;50.860;13.466;2023-02-28T13:48:00;3.00;91.20
3194;DHT22;1608;50.860;13.466;2023-02-28T13:50:31;3.10;91.70
3194;DHT22;1608;50.860;13.466;2023-02-28T13:56:23;3.20;91.00
3194;DHT22;1608;50.860;13.466;2023-02-28T13:58:55;3.10;90.70
3194;DHT22;1608;50.860;13.466;2023-02-28T14:01:50;3.10;90.80
3194;DHT22;1608;50.860;13.466;2023-02-28T14:04:47;3.00;90.40
3194;DHT22;1608;50.860;13.466;2023-02-28T14:07:19;2.90;90.80
3194;DHT22;1608;50.860;13.466;2023-02-28T14:09:55;3.00;91.20
3194;DHT22;1608;50.860;13.466;2023-02-28T14:12:52;3.00;90.80
3194;DHT22;1608;50.860;13.466;2023-02-28T14:15:38;3.20;91.20
3194;DHT22;1608;50.860;13.466;2023-02-28T14:18:15;3.20;90.40
3194;DHT22;1608;50.860;13.466;2023-02-28T14:20:43;3.20;90.80
3194;DHT22;1608;50.860;13.466;2023-02-28T14:23:17;3.20;90.60
3194;DHT22;1608;50.860;13.466;2023-02-28T14:25:53;3.30;90.80
3194;DHT22;1608;50.860;13.466;2023-02-28T14:28:31;3.30;90.70
3194;DHT22;1608;50.860;13.466;2023-02-28T14:31:06;3.20;90.50
3194;DHT22;1608;50.860;13.466;2023-02-28T14:33:53;3.20;90.40
3194;DHT22;1608;50.860;13.466;2023-02-28T14:36:23;3.10;90.60
3194;DHT22;1608;50.860;13.466;2023-02-28T14:38:52;3.10;90.80
3194;DHT22;1608;50.860;13.466;2023-02-28T14:41:22;3.10;90.80
3194;DHT22;1608;50.860;13.466;2023-02-28T14:43:55;2.90;90.70
3194;DHT22;1608;50.860;13.466;2023-02-28T14:46:25;2.90;91.40
3194;DHT22;1608;50.860;13.466;2023-02-28T14:48:54;2.90;91.40
3194;DHT22;1608;50.860;13.466;2023-02-28T14:51:22;2.80;91.40
3194;DHT22;1608;50.860;13.466;2023-02-28T14:53:55;2.70;91.70
3194;DHT22;1608;50.860;13.466;2023-02-28T14:56:26;2.70;91.70
3194;DHT22;1608;50.860;13.466;2023-02-28T14:58:54;2.80;91.80
3194;DHT22;1608;50.860;13.466;2023-02-28T15:01:23;2.80;92.10
3194;DHT22;1608;50.860;13.466;2023-02-28T15:03:59;2.90;92.20
3194;DHT22;1608;50.860;13.466;2023-02-28T15:06:27;3.00;92.20
3194;DHT22;1608;50.860;13.466;2023-02-28T15:09:15;3.00;92.00
3194;DHT22;1608;50.860;13.466;2023-02-28T15:11:46;2.90;91.80
3194;DHT22;1608;50.860;13.466;2023-02-28T15:14:17;2.70;91.90
3194;DHT22;1608;50.860;13.466;2023-02-28T15:16:47;2.50;92.20
3194;DHT22;1608;50.860;13.466;2023-02-28T15:19:20;2.40;92.40
3194;DHT22;1608;50.860;13.466;2023-02-28T15:21:54;2.20;92.70
3194;DHT22;1608;50.860;13.466;2023-02-28T15:24:30;2.20;92.90
3194;DHT22;1608;50.860;13.466;2023-02-28T15:26:59;2.30;93.20
3194;DHT22;1608;50.860;13.466;2023-02-28T15:29:29;2.30;93.20
3194;DHT22;1608;50.860;13.466;2023-02-28T15:32:01;2.20;93.30
3194;DHT22;1608;50.860;13.466;2023-02-28T15:34:34;2.30;93.50
3194;DHT22;1608;50.860;13.466;2023-02-28T15:37:02;2.10;93.40
3194;DHT22;1608;50.860;13.466;2023-02-28T15:39:42;2.00;93.60
3194;DHT22;1608;50.860;13.466;2023-02-28T15:42:10;1.90;93.90
3194;DHT22;1608;50.860;13.466;2023-02-28T15:44:38;1.90;93.90
3194;DHT22;1608;50.860;13.466;2023-02-28T15:47:06;1.90;94.10
3194;DHT22;1608;50.860;13.466;2023-02-28T15:49:44;2.00;94.10
3194;DHT22;1608;50.860;13.466;2023-02-28T15:52:15;2.00;94.10
3194;DHT22;1608;50.860;13.466;2023-02-28T15:54:43;2.00;94.20
3194;DHT22;1608;50.860;13.466;2023-02-28T15:57:14;2.00;94.50
3194;DHT22;1608;50.860;13.466;2023-02-28T15:59:50;2.00;94.20
3194;DHT22;1608;50.860;13.466;2023-02-28T16:02:19;2.00;94.20
3194;DHT22;1608;50.860;13.466;2023-02-28T16:04:58;2.00;94.30
3194;DHT22;1608;50.860;13.466;2023-02-28T16:07:25;1.90;94.40
3194;DHT22;1608;50.860;13.466;2023-02-28T16:09:52;1.90;94.90
3194;DHT22;1608;50.860;13.466;2023-02-28T16:12:20;1.90;94.80
3194;DHT22;1608;50.860;13.466;2023-02-28T16:14:51;1.90;94.70
3194;DHT22;1608;50.860;13.466;2023-02-28T16:17:20;1.90;94.60
3194;DHT22;1608;50.860;13.466;2023-02-28T16:19:48;1.90;94.60
3194;DHT22;1608;50.860;13.466;2023-02-28T16:22:16;1.70;94.70
3194;DHT22;1608;50.860;13.466;2023-02-28T16:24:43;1.80;94.90
3194;DHT22;1608;50.860;13.466;2023-02-28T16:27:17;1.80;95.00